sensor_id;sensor_type;location;lat;lon;timestamp;pressure;altitude;pressure_sealevel;temperature;humidity
58245;BME280;44550;43.864;25.986;2023-03-14T00:01:29;101476.00;;;6.54;57.55
58245;BME280;44550;43.864;25.986;2023-03-14T00:05:54;101467.88;;;6.69;57.09
58245;BME280;44550;43.864;25.986;2023-03-14T00:09:57;101460.88;;;6.68;56.87
58245;BME280;44550;43.864;25.986;2023-03-14T00:14:41;101462.34;;;6.60;57.03
58245;BME280;44550;43.864;25.986;2023-03-14T00:19:04;101464.97;;;6.36;57.46
58245;BME280;44550;43.864;25.986;2023-03-14T00:23:28;101462.34;;;6.12;58.07
58245;BME280;44550;43.864;25.986;2023-03-14T00:32:16;101443.19;;;5.86;58.94
58245;BME280;44550;43.864;25.986;2023-03-14T00:45:28;101426.59;;;5.36;60.60
58245;BME280;44550;43.864;25.986;2023-03-14T00:50:00;101411.03;;;5.36;60.38
58245;BME280;44550;43.864;25.986;2023-03-14T00:54:25;101402.56;;;5.40;60.16
58245;BME280;44550;43.864;25.986;2023-03-14T00:58:58;101401.53;;;5.59;59.75
58245;BME280;44550;43.864;25.986;2023-03-14T01:03:24;101399.41;;;5.71;59.44
58245;BME280;44550;43.864;25.986;2023-03-14T01:07:49;101396.41;;;6.07;57.87
58245;BME280;44550;43.864;25.986;2023-03-14T01:12:00;101383.47;;;5.84;58.42
58245;BME280;44550;43.864;25.986;2023-03-14T01:16:27;101378.56;;;5.46;59.47
58245;BME280;44550;43.864;25.986;2023-03-14T01:20:44;101377.44;;;5.16;60.50
58245;BME280;44550;43.864;25.986;2023-03-14T01:24:57;101376.59;;;4.95;61.04
58245;BME280;44550;43.864;25.986;2023-03-14T01:29:23;101376.97;;;5.04;60.90
58245;BME280;44550;43.864;25.986;2023-03-14T01:33:56;101379.31;;;4.98;60.72
58245;BME280;44550;43.864;25.986;2023-03-14T01:38:09;101385.22;;;5.16;60.17
58245;BME280;44550;43.864;25.986;2023-03-14T01:42:23;101380.75;;;5.35;59.55
58245;BME280;44550;43.864;25.986;2023-03-14T01:46:26;101371.50;;;5.41;59.00
58245;BME280;44550;43.864;25.986;2023-03-14T01:50:55;101370.56;;;5.17;59.65
58245;BME280;44550;43.864;25.986;2023-03-14T01:55:09;101367.53;;;5.29;59.32
58245;BME280;44550;43.864;25.986;2023-03-14T01:59:36;101367.03;;;5.15;59.27
58245;BME280;44550;43.864;25.986;2023-03-14T02:08:33;101363.84;;;5.22;59.38
58245;BME280;44550;43.864;25.986;2023-03-14T02:17:41;101360.88;;;5.35;58.76
58245;BME280;44550;43.864;25.986;2023-03-14T02:21:55;101369.50;;;5.34;58.68
58245;BME280;44550;43.864;25.986;2023-03-14T02:30:29;101380.38;;;5.71;57.97
58245;BME280;44550;43.864;25.986;2023-03-14T02:39:48;101377.44;;;5.39;58.43
58245;BME280;44550;43.864;25.986;2023-03-14T02:44:15;101368.31;;;5.26;59.11
58245;BME280;44550;43.864;25.986;2023-03-14T02:48:51;101377.50;;;5.18;59.13
58245;BME280;44550;43.864;25.986;2023-03-14T02:53:10;101387.28;;;5.25;59.56
58245;BME280;44550;43.864;25.986;2023-03-14T02:57:17;101386.06;;;5.38;58.64
58245;BME280;44550;43.864;25.986;2023-03-14T03:01:34;101383.09;;;5.29;57.44
58245;BME280;44550;43.864;25.986;2023-03-14T03:05:52;101386.22;;;4.77;57.90
58245;BME280;44550;43.864;25.986;2023-03-14T03:10:06;101380.09;;;4.33;59.52
58245;BME280;44550;43.864;25.986;2023-03-14T03:14:32;101373.16;;;3.91;60.37
58245;BME280;44550;43.864;25.986;2023-03-14T03:18:56;101368.25;;;3.78;61.34
58245;BME280;44550;43.864;25.986;2023-03-14T03:27:39;101373.59;;;4.02;60.29
58245;BME280;44550;43.864;25.986;2023-03-14T03:32:08;101377.88;;;4.21;60.35
58245;BME280;44550;43.864;25.986;2023-03-14T03:36:30;101371.59;;;4.16;61.03
58245;BME280;44550;43.864;25.986;2023-03-14T03:40:56;101367.75;;;4.06;60.97
58245;BME280;44550;43.864;25.986;2023-03-14T03:54:11;101335.03;;;3.68;62.23
58245;BME280;44550;43.864;25.986;2023-03-14T03:58:16;101330.94;;;3.73;62.32
58245;BME280;44550;43.864;25.986;2023-03-14T04:17:35;101306.31;;;3.81;60.21
58245;BME280;44550;43.864;25.986;2023-03-14T04:27:12;101290.72;;;3.60;58.53
58245;BME280;44550;43.864;25.986;2023-03-14T04:31:42;101292.28;;;3.76;57.99
58245;BME280;44550;43.864;25.986;2023-03-14T04:36:04;101286.19;;;3.95;57.62
58245;BME280;44550;43.864;25.986;2023-03-14T04:40:17;101281.78;;;3.92;55.69
58245;BME280;44550;43.864;25.986;2023-03-14T04:45:10;101272.03;;;3.87;55.82
58245;BME280;44550;43.864;25.986;2023-03-14T04:49:19;101274.84;;;3.91;54.72
58245;BME280;44550;43.864;25.986;2023-03-14T04:53:29;101269.00;;;3.97;55.68
58245;BME280;44550;43.864;25.986;2023-03-14T04:57:40;101259.69;;;4.21;55.72
58245;BME280;44550;43.864;25.986;2023-03-14T05:01:56;101274.38;;;4.43;55.86
58245;BME280;44550;43.864;25.986;2023-03-14T05:06:09;101281.53;;;4.71;55.18
58245;BME280;44550;43.864;25.986;2023-03-14T05:10:37;101282.81;;;4.83;54.43
58245;BME280;44550;43.864;25.986;2023-03-14T05:15:16;101298.91;;;4.74;53.06
58245;BME280;44550;43.864;25.986;2023-03-14T05:20:27;101295.78;;;5.05;51.66
58245;BME280;44550;43.864;25.986;2023-03-14T05:25:23;101312.44;;;5.34;51.45
58245;BME280;44550;43.864;25.986;2023-03-14T05:30:09;101304.41;;;5.51;51.56
58245;BME280;44550;43.864;25.986;2023-03-14T05:34:36;101296.16;;;5.38;50.65
58245;BME280;44550;43.864;25.986;2023-03-14T05:38:57;101286.53;;;4.89;51.98
58245;BME280;44550;43.864;25.986;2023-03-14T05:49:16;101290.69;;;5.07;52.73
58245;BME280;44550;43.864;25.986;2023-03-14T05:58:19;101294.69;;;5.45;61.28
58245;BME280;44550;43.864;25.986;2023-03-14T06:07:10;101279.72;;;5.38;59.41
58245;BME280;44550;43.864;25.986;2023-03-14T06:11:13;101269.69;;;5.71;56.78
58245;BME280;44550;43.864;25.986;2023-03-14T06:15:37;101273.94;;;5.93;56.20
58245;BME280;44550;43.864;25.986;2023-03-14T06:19:46;101266.94;;;5.92;56.35
58245;BME280;44550;43.864;25.986;2023-03-14T06:28:36;101266.44;;;6.28;55.10
58245;BME280;44550;43.864;25.986;2023-03-14T06:32:57;101270.72;;;6.81;53.37
58245;BME280;44550;43.864;25.986;2023-03-14T06:37:01;101264.66;;;7.11;53.10
58245;BME280;44550;43.864;25.986;2023-03-14T06:41:05;101263.66;;;7.36;56.54
58245;BME280;44550;43.864;25.986;2023-03-14T06:45:16;101255.47;;;7.22;58.17
58245;BME280;44550;43.864;25.986;2023-03-14T06:49:17;101277.63;;;7.10;59.67
58245;BME280;44550;43.864;25.986;2023-03-14T06:53:22;101289.66;;;6.77;59.66
58245;BME280;44550;43.864;25.986;2023-03-14T06:57:24;101284.06;;;6.65;58.66
58245;BME280;44550;43.864;25.986;2023-03-14T07:01:38;101277.31;;;6.70;58.35
58245;BME280;44550;43.864;25.986;2023-03-14T07:05:52;101276.72;;;6.52;59.07
58245;BME280;44550;43.864;25.986;2023-03-14T07:10:29;101262.09;;;6.28;60.32
58245;BME280;44550;43.864;25.986;2023-03-14T07:14:42;101249.28;;;6.60;60.59
58245;BME280;44550;43.864;25.986;2023-03-14T07:18:53;101241.34;;;6.84;60.31
58245;BME280;44550;43.864;25.986;2023-03-14T07:23:06;101227.03;;;7.60;58.05
58245;BME280;44550;43.864;25.986;2023-03-14T07:27:08;101223.19;;;8.50;55.60
58245;BME280;44550;43.864;25.986;2023-03-14T07:31:13;101219.22;;;8.66;55.01
58245;BME280;44550;43.864;25.986;2023-03-14T07:35:16;101224.44;;;8.66;53.67
58245;BME280;44550;43.864;25.986;2023-03-14T07:39:23;101219.31;;;8.70;53.60
58245;BME280;44550;43.864;25.986;2023-03-14T07:43:25;101229.94;;;8.40;53.79
58245;BME280;44550;43.864;25.986;2023-03-14T07:47:29;101234.72;;;8.60;51.04
58245;BME280;44550;43.864;25.986;2023-03-14T07:51:46;101225.38;;;8.69;49.71
58245;BME280;44550;43.864;25.986;2023-03-14T07:56:13;101221.66;;;8.98;49.76
58245;BME280;44550;43.864;25.986;2023-03-14T08:00:21;101214.94;;;9.54;47.62
58245;BME280;44550;43.864;25.986;2023-03-14T08:04:25;101205.19;;;9.44;47.74
58245;BME280;44550;43.864;25.986;2023-03-14T08:08:33;101213.56;;;9.28;48.01
58245;BME280;44550;43.864;25.986;2023-03-14T08:12:43;101216.13;;;9.70;48.60
58245;BME280;44550;43.864;25.986;2023-03-14T08:16:47;101208.94;;;9.60;48.52
58245;BME280;44550;43.864;25.986;2023-03-14T08:20:56;101196.56;;;9.98;46.60
58245;BME280;44550;43.864;25.986;2023-03-14T08:25:00;101185.56;;;10.18;46.25
58245;BME280;44550;43.864;25.986;2023-03-14T08:29:06;101182.72;;;10.60;44.96
58245;BME280;44550;43.864;25.986;2023-03-14T08:33:12;101179.63;;;10.92;44.20
58245;BME280;44550;43.864;25.986;2023-03-14T08:37:25;101178.88;;;11.00;43.98
58245;BME280;44550;43.864;25.986;2023-03-14T08:41:28;101177.03;;;10.92;43.68
58245;BME280;44550;43.864;25.986;2023-03-14T08:45:46;101145.22;;;11.34;43.32
58245;BME280;44550;43.864;25.986;2023-03-14T08:49:54;101154.41;;;11.82;41.47
58245;BME280;44550;43.864;25.986;2023-03-14T08:53:59;101151.84;;;11.88;41.16
58245;BME280;44550;43.864;25.986;2023-03-14T08:58:10;101143.13;;;11.86;41.25
58245;BME280;44550;43.864;25.986;2023-03-14T09:02:17;101140.72;;;12.18;39.94
58245;BME280;44550;43.864;25.986;2023-03-14T09:06:17;101136.31;;;12.14;39.42
58245;BME280;44550;43.864;25.986;2023-03-14T09:10:20;101132.75;;;12.00;39.45
58245;BME280;44550;43.864;25.986;2023-03-14T09:14:26;101114.38;;;11.98;39.62
58245;BME280;44550;43.864;25.986;2023-03-14T09:18:26;101112.03;;;12.48;38.75
58245;BME280;44550;43.864;25.986;2023-03-14T09:22:27;101099.94;;;12.79;38.42
58245;BME280;44550;43.864;25.986;2023-03-14T09:26:28;101093.69;;;12.46;38.31
58245;BME280;44550;43.864;25.986;2023-03-14T09:30:30;101078.91;;;12.74;38.03
58245;BME280;44550;43.864;25.986;2023-03-14T09:34:30;101068.44;;;12.76;37.90
58245;BME280;44550;43.864;25.986;2023-03-14T09:38:33;101065.88;;;12.97;37.13
58245;BME280;44550;43.864;25.986;2023-03-14T09:42:33;101057.16;;;13.13;37.53
58245;BME280;44550;43.864;25.986;2023-03-14T09:46:39;101063.28;;;13.06;36.97
58245;BME280;44550;43.864;25.986;2023-03-14T09:50:42;101053.63;;;13.07;36.68
58245;BME280;44550;43.864;25.986;2023-03-14T09:54:47;101042.34;;;13.25;37.21
58245;BME280;44550;43.864;25.986;2023-03-14T09:59:02;101040.56;;;13.44;36.34
58245;BME280;44550;43.864;25.986;2023-03-14T10:07:32;101019.53;;;13.71;35.67
58245;BME280;44550;43.864;25.986;2023-03-14T10:11:53;100999.38;;;13.70;35.26
58245;BME280;44550;43.864;25.986;2023-03-14T10:16:08;100999.28;;;14.12;34.50
58245;BME280;44550;43.864;25.986;2023-03-14T10:25:23;100979.78;;;14.60;33.19
58245;BME280;44550;43.864;25.986;2023-03-14T10:29:51;100978.00;;;14.65;33.59
58245;BME280;44550;43.864;25.986;2023-03-14T10:33:58;100968.13;;;14.96;32.38
58245;BME280;44550;43.864;25.986;2023-03-14T10:38:04;100957.50;;;15.09;32.42
58245;BME280;44550;43.864;25.986;2023-03-14T10:42:20;100946.69;;;15.39;32.03
58245;BME280;44550;43.864;25.986;2023-03-14T10:46:27;100938.44;;;15.74;30.77
58245;BME280;44550;43.864;25.986;2023-03-14T10:50:47;100917.28;;;15.79;30.10
58245;BME280;44550;43.864;25.986;2023-03-14T10:54:56;100907.47;;;15.92;29.85
58245;BME280;44550;43.864;25.986;2023-03-14T10:59:02;100897.03;;;15.84;30.44
58245;BME280;44550;43.864;25.986;2023-03-14T11:03:06;100889.84;;;15.95;31.50
58245;BME280;44550;43.864;25.986;2023-03-14T11:07:15;100880.97;;;16.01;30.45
58245;BME280;44550;43.864;25.986;2023-03-14T11:11:19;100865.81;;;16.15;30.21
58245;BME280;44550;43.864;25.986;2023-03-14T11:15:25;100864.75;;;16.29;31.42
58245;BME280;44550;43.864;25.986;2023-03-14T11:19:32;100855.66;;;16.48;29.71
58245;BME280;44550;43.864;25.986;2023-03-14T11:23:39;100838.09;;;16.47;29.09
58245;BME280;44550;43.864;25.986;2023-03-14T11:27:43;100825.84;;;16.43;28.05
58245;BME280;44550;43.864;25.986;2023-03-14T11:31:46;100816.78;;;16.59;28.59
58245;BME280;44550;43.864;25.986;2023-03-14T11:35:48;100799.09;;;16.64;28.75
58245;BME280;44550;43.864;25.986;2023-03-14T11:39:53;100785.84;;;17.17;28.36
58245;BME280;44550;43.864;25.986;2023-03-14T11:43:55;100767.13;;;17.70;27.32
58245;BME280;44550;43.864;25.986;2023-03-14T11:48:05;100754.94;;;17.63;27.07
58245;BME280;44550;43.864;25.986;2023-03-14T11:52:09;100739.72;;;17.72;26.67
58245;BME280;44550;43.864;25.986;2023-03-14T11:56:16;100726.44;;;17.75;24.02
58245;BME280;44550;43.864;25.986;2023-03-14T12:00:19;100719.09;;;17.90;25.48
58245;BME280;44550;43.864;25.986;2023-03-14T12:08:49;100693.50;;;17.90;24.96
58245;BME280;44550;43.864;25.986;2023-03-14T12:12:50;100683.19;;;18.15;22.49
58245;BME280;44550;43.864;25.986;2023-03-14T12:16:55;100680.06;;;17.98;22.57
58245;BME280;44550;43.864;25.986;2023-03-14T12:20:57;100660.34;;;17.74;21.52
58245;BME280;44550;43.864;25.986;2023-03-14T12:25:04;100662.19;;;18.42;21.97
58245;BME280;44550;43.864;25.986;2023-03-14T12:29:14;100656.44;;;18.59;21.28
58245;BME280;44550;43.864;25.986;2023-03-14T12:33:21;100650.56;;;18.47;21.25
58245;BME280;44550;43.864;25.986;2023-03-14T12:37:35;100649.78;;;18.76;21.00
58245;BME280;44550;43.864;25.986;2023-03-14T12:41:51;100643.16;;;19.51;19.90
58245;BME280;44550;43.864;25.986;2023-03-14T12:46:08;100634.13;;;19.56;18.94
58245;BME280;44550;43.864;25.986;2023-03-14T12:50:24;100631.19;;;19.67;18.76
58245;BME280;44550;43.864;25.986;2023-03-14T12:54:29;100623.72;;;19.78;19.15
58245;BME280;44550;43.864;25.986;2023-03-14T12:58:47;100615.53;;;20.11;18.25
58245;BME280;44550;43.864;25.986;2023-03-14T13:02:51;100603.88;;;20.15;16.50
58245;BME280;44550;43.864;25.986;2023-03-14T13:06:55;100589.53;;;19.69;16.46
58245;BME280;44550;43.864;25.986;2023-03-14T13:10:55;100577.69;;;19.79;16.84
58245;BME280;44550;43.864;25.986;2023-03-14T13:14:59;100571.63;;;19.76;16.70
58245;BME280;44550;43.864;25.986;2023-03-14T13:19:09;100571.75;;;19.98;17.24
58245;BME280;44550;43.864;25.986;2023-03-14T13:23:21;100568.00;;;20.03;16.68
58245;BME280;44550;43.864;25.986;2023-03-14T13:27:21;100551.69;;;19.62;16.72
58245;BME280;44550;43.864;25.986;2023-03-14T13:31:37;100543.19;;;19.53;17.06
58245;BME280;44550;43.864;25.986;2023-03-14T13:35:57;100534.69;;;19.69;17.43
58245;BME280;44550;43.864;25.986;2023-03-14T13:40:23;100535.19;;;19.54;17.80
58245;BME280;44550;43.864;25.986;2023-03-14T13:44:46;100525.44;;;19.81;17.50
58245;BME280;44550;43.864;25.986;2023-03-14T13:48:54;100512.22;;;19.80;17.81
58245;BME280;44550;43.864;25.986;2023-03-14T13:52:59;100502.63;;;19.76;17.68
58245;BME280;44550;43.864;25.986;2023-03-14T13:57:02;100502.16;;;19.89;17.92
58245;BME280;44550;43.864;25.986;2023-03-14T14:01:13;100491.72;;;20.10;17.26
58245;BME280;44550;43.864;25.986;2023-03-14T14:09:39;100470.81;;;20.01;16.75
58245;BME280;44550;43.864;25.986;2023-03-14T14:13:45;100471.59;;;20.03;17.31
58245;BME280;44550;43.864;25.986;2023-03-14T14:18:07;100471.25;;;19.62;17.52
58245;BME280;44550;43.864;25.986;2023-03-14T14:22:37;100459.44;;;19.72;17.11
58245;BME280;44550;43.864;25.986;2023-03-14T14:31:58;100445.06;;;19.53;17.46
58245;BME280;44550;43.864;25.986;2023-03-14T14:40:31;100429.84;;;19.58;16.86
58245;BME280;44550;43.864;25.986;2023-03-14T14:45:12;100424.91;;;19.22;17.80
58245;BME280;44550;43.864;25.986;2023-03-14T14:49:43;100418.94;;;19.15;17.52
58245;BME280;44550;43.864;25.986;2023-03-14T14:54:15;100413.56;;;19.17;17.49
58245;BME280;44550;43.864;25.986;2023-03-14T14:58:39;100409.50;;;19.07;17.92
58245;BME280;44550;43.864;25.986;2023-03-14T15:03:12;100407.13;;;18.99;17.82
58245;BME280;44550;43.864;25.986;2023-03-14T15:11:59;100389.31;;;19.04;17.65
58245;BME280;44550;43.864;25.986;2023-03-14T15:16:28;100391.59;;;18.88;17.99
58245;BME280;44550;43.864;25.986;2023-03-14T15:20:34;100389.16;;;18.52;17.95
58245;BME280;44550;43.864;25.986;2023-03-14T15:24:52;100377.06;;;18.44;18.35
58245;BME280;44550;43.864;25.986;2023-03-14T15:29:19;100376.66;;;18.29;18.65
58245;BME280;44550;43.864;25.986;2023-03-14T15:33:38;100368.88;;;18.25;19.57
58245;BME280;44550;43.864;25.986;2023-03-14T15:37:42;100366.81;;;18.05;19.35
58245;BME280;44550;43.864;25.986;2023-03-14T15:41:58;100370.84;;;17.87;20.12
58245;BME280;44550;43.864;25.986;2023-03-14T15:46:03;100375.22;;;17.57;20.51
58245;BME280;44550;43.864;25.986;2023-03-14T15:50:08;100379.16;;;17.42;20.84
58245;BME280;44550;43.864;25.986;2023-03-14T15:54:16;100368.44;;;17.14;21.02
58245;BME280;44550;43.864;25.986;2023-03-14T15:58:22;100365.16;;;17.04;21.74
58245;BME280;44550;43.864;25.986;2023-03-14T16:02:39;100365.66;;;16.86;21.76
58245;BME280;44550;43.864;25.986;2023-03-14T16:06:53;100358.19;;;16.66;21.75
58245;BME280;44550;43.864;25.986;2023-03-14T16:10:57;100360.19;;;16.56;21.78
58245;BME280;44550;43.864;25.986;2023-03-14T16:15:00;100356.09;;;16.43;22.16
58245;BME280;44550;43.864;25.986;2023-03-14T16:19:16;100356.44;;;16.28;22.07
58245;BME280;44550;43.864;25.986;2023-03-14T16:23:21;100361.28;;;16.07;22.18
58245;BME280;44550;43.864;25.986;2023-03-14T16:27:38;100359.16;;;15.84;22.11
58245;BME280;44550;43.864;25.986;2023-03-14T16:31:45;100355.94;;;15.68;22.56
58245;BME280;44550;43.864;25.986;2023-03-14T16:35:58;100356.09;;;15.61;22.57
58245;BME280;44550;43.864;25.986;2023-03-14T16:40:22;100359.31;;;15.30;22.33
58245;BME280;44550;43.864;25.986;2023-03-14T16:44:29;100353.47;;;15.13;23.02
58245;BME280;44550;43.864;25.986;2023-03-14T16:48:41;100350.31;;;14.94;22.41
58245;BME280;44550;43.864;25.986;2023-03-14T16:53:20;100352.38;;;14.73;22.49
58245;BME280;44550;43.864;25.986;2023-03-14T16:57:44;100344.47;;;14.75;22.90
58245;BME280;44550;43.864;25.986;2023-03-14T17:02:19;100345.44;;;14.69;22.72
58245;BME280;44550;43.864;25.986;2023-03-14T17:06:29;100337.69;;;14.60;23.16
58245;BME280;44550;43.864;25.986;2023-03-14T17:10:40;100331.94;;;14.35;23.44
58245;BME280;44550;43.864;25.986;2023-03-14T17:14:50;100339.91;;;14.30;23.68
58245;BME280;44550;43.864;25.986;2023-03-14T17:19:14;100327.88;;;14.14;23.86
58245;BME280;44550;43.864;25.986;2023-03-14T17:23:40;100326.34;;;13.98;24.28
58245;BME280;44550;43.864;25.986;2023-03-14T17:28:09;100327.47;;;13.78;24.89
58245;BME280;44550;43.864;25.986;2023-03-14T17:32:38;100323.31;;;13.62;25.13
58245;BME280;44550;43.864;25.986;2023-03-14T17:37:10;100323.50;;;13.44;25.66
58245;BME280;44550;43.864;25.986;2023-03-14T17:41:27;100318.31;;;13.39;25.81
58245;BME280;44550;43.864;25.986;2023-03-14T17:55:27;100309.06;;;13.03;26.67
58245;BME280;44550;43.864;25.986;2023-03-14T17:59:46;100301.34;;;12.86;27.25
58245;BME280;44550;43.864;25.986;2023-03-14T18:03:50;100298.88;;;12.67;27.69
58245;BME280;44550;43.864;25.986;2023-03-14T18:08:05;100299.91;;;12.50;27.95
58245;BME280;44550;43.864;25.986;2023-03-14T18:12:16;100299.16;;;12.35;28.33
58245;BME280;44550;43.864;25.986;2023-03-14T18:16:42;100297.41;;;12.31;28.36
58245;BME280;44550;43.864;25.986;2023-03-14T18:21:32;100293.16;;;12.18;28.81
58245;BME280;44550;43.864;25.986;2023-03-14T18:25:46;100294.91;;;12.17;28.75
58245;BME280;44550;43.864;25.986;2023-03-14T18:30:00;100287.88;;;12.21;28.70
58245;BME280;44550;43.864;25.986;2023-03-14T18:34:21;100290.53;;;12.15;28.57
58245;BME280;44550;43.864;25.986;2023-03-14T18:38:29;100281.88;;;12.05;28.66
58245;BME280;44550;43.864;25.986;2023-03-14T18:42:29;100287.16;;;12.02;28.72
58245;BME280;44550;43.864;25.986;2023-03-14T18:51:17;100276.78;;;11.79;29.00
58245;BME280;44550;43.864;25.986;2023-03-14T18:56:01;100278.56;;;11.75;29.33
58245;BME280;44550;43.864;25.986;2023-03-14T19:00:12;100281.19;;;11.69;29.14
58245;BME280;44550;43.864;25.986;2023-03-14T19:04:30;100286.50;;;11.57;29.69
58245;BME280;44550;43.864;25.986;2023-03-14T19:08:52;100274.34;;;11.38;30.15
58245;BME280;44550;43.864;25.986;2023-03-14T19:13:23;100274.34;;;11.35;30.37
58245;BME280;44550;43.864;25.986;2023-03-14T19:17:53;100266.53;;;11.30;30.33
58245;BME280;44550;43.864;25.986;2023-03-14T19:22:23;100273.50;;;11.28;30.61
58245;BME280;44550;43.864;25.986;2023-03-14T19:26:54;100272.69;;;11.12;31.25
58245;BME280;44550;43.864;25.986;2023-03-14T19:31:18;100261.34;;;11.15;31.65
58245;BME280;44550;43.864;25.986;2023-03-14T19:35:56;100263.03;;;11.28;32.21
58245;BME280;44550;43.864;25.986;2023-03-14T19:40:26;100257.06;;;10.86;33.19
58245;BME280;44550;43.864;25.986;2023-03-14T19:49:39;100258.81;;;10.75;34.15
58245;BME280;44550;43.864;25.986;2023-03-14T19:54:18;100246.66;;;10.60;34.71
58245;BME280;44550;43.864;25.986;2023-03-14T19:58:37;100247.53;;;10.48;35.36
58245;BME280;44550;43.864;25.986;2023-03-14T20:03:31;100257.09;;;10.49;35.58
58245;BME280;44550;43.864;25.986;2023-03-14T20:07:51;100249.28;;;10.60;35.56
58245;BME280;44550;43.864;25.986;2023-03-14T20:12:16;100252.75;;;10.64;35.81
58245;BME280;44550;43.864;25.986;2023-03-14T20:16:44;100261.44;;;10.69;35.96
58245;BME280;44550;43.864;25.986;2023-03-14T20:21:08;100257.94;;;10.93;35.98
58245;BME280;44550;43.864;25.986;2023-03-14T20:25:21;100264.88;;;10.98;36.14
58245;BME280;44550;43.864;25.986;2023-03-14T20:29:40;100239.69;;;10.53;36.86
58245;BME280;44550;43.864;25.986;2023-03-14T20:34:11;100266.69;;;10.35;38.15
58245;BME280;44550;43.864;25.986;2023-03-14T20:38:46;100271.88;;;10.01;38.94
58245;BME280;44550;43.864;25.986;2023-03-14T20:43:17;100273.56;;;9.85;39.84
58245;BME280;44550;43.864;25.986;2023-03-14T20:47:59;100274.50;;;9.97;40.14
58245;BME280;44550;43.864;25.986;2023-03-14T20:52:37;100270.97;;;9.88;40.91
58245;BME280;44550;43.864;25.986;2023-03-14T20:57:16;100261.34;;;9.68;41.73
58245;BME280;44550;43.864;25.986;2023-03-14T21:01:50;100261.31;;;9.51;42.58
58245;BME280;44550;43.864;25.986;2023-03-14T21:06:44;100249.03;;;9.30;43.27
58245;BME280;44550;43.864;25.986;2023-03-14T21:11:34;100240.31;;;9.18;43.82
58245;BME280;44550;43.864;25.986;2023-03-14T21:26:19;100240.28;;;9.12;44.41
58245;BME280;44550;43.864;25.986;2023-03-14T21:31:14;100222.03;;;9.20;44.11
58245;BME280;44550;43.864;25.986;2023-03-14T21:35:50;100224.69;;;9.25;43.89
58245;BME280;44550;43.864;25.986;2023-03-14T21:40:11;100210.78;;;9.32;43.56
58245;BME280;44550;43.864;25.986;2023-03-14T21:48:39;100195.97;;;9.25;43.63
58245;BME280;44550;43.864;25.986;2023-03-14T21:53:34;100186.31;;;8.99;44.40
58245;BME280;44550;43.864;25.986;2023-03-14T21:58:15;100191.56;;;9.05;44.08
58245;BME280;44550;43.864;25.986;2023-03-14T22:02:29;100182.84;;;8.99;44.32
58245;BME280;44550;43.864;25.986;2023-03-14T22:07:27;100178.50;;;9.01;44.38
58245;BME280;44550;43.864;25.986;2023-03-14T22:12:14;100177.50;;;8.77;44.75
58245;BME280;44550;43.864;25.986;2023-03-14T22:16:43;100175.78;;;8.75;44.90
58245;BME280;44550;43.864;25.986;2023-03-14T22:26:17;100173.06;;;8.59;45.45
58245;BME280;44550;43.864;25.986;2023-03-14T22:31:16;100178.03;;;8.26;46.41
58245;BME280;44550;43.864;25.986;2023-03-14T22:51:10;100160.28;;;7.77;48.22
58245;BME280;44550;43.864;25.986;2023-03-14T22:55:55;100155.91;;;7.68;48.57
58245;BME280;44550;43.864;25.986;2023-03-14T23:01:11;100155.91;;;7.73;48.34
58245;BME280;44550;43.864;25.986;2023-03-14T23:06:09;100151.63;;;7.75;48.39
58245;BME280;44550;43.864;25.986;2023-03-14T23:10:56;100154.97;;;7.65;48.46
58245;BME280;44550;43.864;25.986;2023-03-14T23:15:54;100155.84;;;7.64;48.63
58245;BME280;44550;43.864;25.986;2023-03-14T23:20:39;100166.31;;;7.71;48.42
58245;BME280;44550;43.864;25.986;2023-03-14T23:25:30;100156.81;;;7.78;48.56
58245;BME280;44550;43.864;25.986;2023-03-14T23:30:15;100151.72;;;7.90;49.38
58245;BME280;44550;43.864;25.986;2023-03-14T23:35:13;100148.97;;;7.73;50.05
58245;BME280;44550;43.864;25.986;2023-03-14T23:40:03;100141.38;;;7.96;50.02
58245;BME280;44550;43.864;25.986;2023-03-14T23:49:53;100118.47;;;7.56;54.91
58245;BME280;44550;43.864;25.986;2023-03-14T23:54:14;100121.72;;;7.35;55.65
58245;BME280;44550;43.864;25.986;2023-03-14T23:58:36;100110.28;;;7.17;56.75
